Hurghada, Egyiptom

2014 Október 30 08:10 PM (EET időzóna) (GMT +0200)
Hurghada International | Change Station
CLOSE
Current Station
Repülőtér
Location: Hurghada,
Elevation: 46 ft
Közeli meteorológiai állomások

Elev 46 ft 27.18 °N, 33.80 °E | Updated 1 hour ago

Clear
Derült
77 °F
Hőérzet 77 °F
N
18
Szél: változó Szél: from észak-északnyugati

Ma
High -- | Low -- °F
--% Csapadék valószínű
Tegnapi
High -- | Low -- °F
Precip. -- hvlyk.
5:53 AM 5:03 PM
Növekvő holdsarló, 46% visible
Légnyomás 29.92 hvlyk.
Látótávolság -9999.0 mérföld
Felhők
Harmatpont 52 °F
Páratartalom 41%
Rainfall 0.00 hvlyk.
Hóréteg vastagsága Not available.
UV Not available.
Pollen Not available.
A levegő minősége Not available.
Flu Activity Not available.
METAR HEGN 301700Z 34016KT CAVOK 25/11 Q1013 NOSIG

More Conditions Fewer Conditions

Légnyomás 29.92 hvlyk.
Látótávolság -9999.0 mérföld
Felhők
Harmatpont 52 °F
Páratartalom 41%
Rainfall 0.00 hvlyk.
Hóréteg vastagsága Not available.
UV Not available.
Pollen Not available.
A levegő minősége Not available.
Flu Activity Not available.
METAR HEGN 301700Z 34016KT CAVOK 25/11 Q1013 NOSIG

More Conditions Fewer Conditions

10-Day Weather Forecast

Almanac

Csillagászat

Oct. 30, 2014 Kel Nyugszik
Tényleges idő
Civil alkony
Tengerészeti alkony
Csillagászati alkony
Hold
Látható fény időtartama
A nap hossza
Tomorrow will be .
, % of the Moon is Illuminated

Today's Extremes

Country Highs Country Lows

Community

WunderPhotos

Upload Photos

1,766,417 Fotók feltöltve.

WunderBlogs® & News

Nearby

A levegő minősége

  A levegő minősége AQ Index Szennyezőanyag
Not available.

Hóréteg vastagsága

Station Depth Elevation

Earthquake Activity

város Distance Mag. Time & Date
Minimum magnitude displayed is 2.5.

Coastal Water Temperatures

Hely Hőmérséklet

Közeli meteorológiai állomások